sensor_id;sensor_type;location;lat;lon;timestamp;temperature;humidity
30379;DHT22;17168;49.164;9.060;2023-02-11T00:00:16;6.20;66.20
30379;DHT22;17168;49.164;9.060;2023-02-11T00:02:48;6.20;66.20
30379;DHT22;17168;49.164;9.060;2023-02-11T00:05:20;6.20;66.20
30379;DHT22;17168;49.164;9.060;2023-02-11T00:07:52;6.10;66.20
30379;DHT22;17168;49.164;9.060;2023-02-11T00:10:27;6.10;66.20
30379;DHT22;17168;49.164;9.060;2023-02-11T00:13:01;6.10;66.10
30379;DHT22;17168;49.164;9.060;2023-02-11T00:15:33;6.10;66.20
30379;DHT22;17168;49.164;9.060;2023-02-11T00:18:06;6.10;66.20
30379;DHT22;17168;49.164;9.060;2023-02-11T00:20:38;6.10;66.10
30379;DHT22;17168;49.164;9.060;2023-02-11T00:23:10;6.10;66.10
30379;DHT22;17168;49.164;9.060;2023-02-11T00:25:45;6.00;66.10
30379;DHT22;17168;49.164;9.060;2023-02-11T00:28:17;6.00;66.00
30379;DHT22;17168;49.164;9.060;2023-02-11T00:30:53;6.00;66.10
30379;DHT22;17168;49.164;9.060;2023-02-11T00:33:26;6.00;65.90
30379;DHT22;17168;49.164;9.060;2023-02-11T00:35:58;6.00;65.90
30379;DHT22;17168;49.164;9.060;2023-02-11T00:38:34;6.00;65.80
30379;DHT22;17168;49.164;9.060;2023-02-11T00:41:09;6.00;65.80
30379;DHT22;17168;49.164;9.060;2023-02-11T00:43:41;5.90;65.80
30379;DHT22;17168;49.164;9.060;2023-02-11T00:46:14;5.90;65.80
30379;DHT22;17168;49.164;9.060;2023-02-11T00:48:46;5.80;65.90
30379;DHT22;17168;49.164;9.060;2023-02-11T00:51:18;5.70;66.00
30379;DHT22;17168;49.164;9.060;2023-02-11T00:53:50;5.70;66.10
30379;DHT22;17168;49.164;9.060;2023-02-11T00:56:25;5.60;66.10
30379;DHT22;17168;49.164;9.060;2023-02-11T00:58:57;5.50;65.40
30379;DHT22;17168;49.164;9.060;2023-02-11T01:01:29;5.20;64.90
30379;DHT22;17168;49.164;9.060;2023-02-11T01:04:01;4.90;64.80
30379;DHT22;17168;49.164;9.060;2023-02-11T01:06:33;4.60;64.90
30379;DHT22;17168;49.164;9.060;2023-02-11T01:09:05;4.30;65.10
30379;DHT22;17168;49.164;9.060;2023-02-11T01:11:39;4.00;65.30
30379;DHT22;17168;49.164;9.060;2023-02-11T01:14:11;3.80;65.60
30379;DHT22;17168;49.164;9.060;2023-02-11T01:16:44;3.60;65.90
30379;DHT22;17168;49.164;9.060;2023-02-11T01:19:16;3.30;66.10
30379;DHT22;17168;49.164;9.060;2023-02-11T01:21:48;3.10;66.40
30379;DHT22;17168;49.164;9.060;2023-02-11T01:24:20;3.00;66.70
30379;DHT22;17168;49.164;9.060;2023-02-11T01:26:54;2.80;67.00
30379;DHT22;17168;49.164;9.060;2023-02-11T01:29:26;2.70;67.20
30379;DHT22;17168;49.164;9.060;2023-02-11T01:31:59;2.50;67.40
30379;DHT22;17168;49.164;9.060;2023-02-11T01:34:31;2.40;68.40
30379;DHT22;17168;49.164;9.060;2023-02-11T01:37:04;2.30;68.50
30379;DHT22;17168;49.164;9.060;2023-02-11T01:39:36;2.20;68.90
30379;DHT22;17168;49.164;9.060;2023-02-11T01:42:15;2.10;69.20
30379;DHT22;17168;49.164;9.060;2023-02-11T01:44:48;2.10;69.50
30379;DHT22;17168;49.164;9.060;2023-02-11T01:47:20;2.00;69.60
30379;DHT22;17168;49.164;9.060;2023-02-11T01:49:56;2.00;69.80
30379;DHT22;17168;49.164;9.060;2023-02-11T01:52:30;2.00;70.00
30379;DHT22;17168;49.164;9.060;2023-02-11T01:55:05;2.00;70.10
30379;DHT22;17168;49.164;9.060;2023-02-11T01:58:08;2.00;70.30
30379;DHT22;17168;49.164;9.060;2023-02-11T02:00:40;2.00;70.50
30379;DHT22;17168;49.164;9.060;2023-02-11T02:03:16;2.00;70.70
30379;DHT22;17168;49.164;9.060;2023-02-11T02:05:54;2.00;70.90
30379;DHT22;17168;49.164;9.060;2023-02-11T02:08:33;2.00;71.10
30379;DHT22;17168;49.164;9.060;2023-02-11T02:11:07;2.00;71.40
30379;DHT22;17168;49.164;9.060;2023-02-11T02:13:42;2.10;71.50
30379;DHT22;17168;49.164;9.060;2023-02-11T02:16:17;2.00;71.70
30379;DHT22;17168;49.164;9.060;2023-02-11T02:18:55;2.00;72.00
30379;DHT22;17168;49.164;9.060;2023-02-11T02:25:13;2.00;72.60
30379;DHT22;17168;49.164;9.060;2023-02-11T02:27:52;2.00;72.70
30379;DHT22;17168;49.164;9.060;2023-02-11T02:33:49;2.00;72.90
30379;DHT22;17168;49.164;9.060;2023-02-11T02:36:30;2.10;73.10
30379;DHT22;17168;49.164;9.060;2023-02-11T02:39:06;2.10;73.20
30379;DHT22;17168;49.164;9.060;2023-02-11T02:41:40;2.10;73.30
30379;DHT22;17168;49.164;9.060;2023-02-11T02:44:13;2.10;73.40
30379;DHT22;17168;49.164;9.060;2023-02-11T02:46:45;2.10;73.40
30379;DHT22;17168;49.164;9.060;2023-02-11T02:49:20;2.20;73.60
30379;DHT22;17168;49.164;9.060;2023-02-11T02:52:14;2.20;73.70
30379;DHT22;17168;49.164;9.060;2023-02-11T02:55:01;2.20;74.00
30379;DHT22;17168;49.164;9.060;2023-02-11T02:57:41;2.30;74.00
30379;DHT22;17168;49.164;9.060;2023-02-11T03:00:23;2.30;74.40
30379;DHT22;17168;49.164;9.060;2023-02-11T03:03:16;2.30;74.90
30379;DHT22;17168;49.164;9.060;2023-02-11T03:05:59;2.40;75.60
30379;DHT22;17168;49.164;9.060;2023-02-11T03:08:35;2.50;76.20
30379;DHT22;17168;49.164;9.060;2023-02-11T03:11:10;2.60;76.70
30379;DHT22;17168;49.164;9.060;2023-02-11T03:13:45;2.70;77.10
30379;DHT22;17168;49.164;9.060;2023-02-11T03:16:20;2.80;77.40
30379;DHT22;17168;49.164;9.060;2023-02-11T03:18:55;3.00;77.70
30379;DHT22;17168;49.164;9.060;2023-02-11T03:21:30;3.10;77.80
30379;DHT22;17168;49.164;9.060;2023-02-11T03:24:05;3.20;77.80
30379;DHT22;17168;49.164;9.060;2023-02-11T03:26:39;3.30;77.80
30379;DHT22;17168;49.164;9.060;2023-02-11T03:29:13;3.30;77.80
30379;DHT22;17168;49.164;9.060;2023-02-11T03:31:50;3.40;77.80
30379;DHT22;17168;49.164;9.060;2023-02-11T03:34:25;3.50;77.90
30379;DHT22;17168;49.164;9.060;2023-02-11T03:37:06;3.60;77.90
30379;DHT22;17168;49.164;9.060;2023-02-11T03:39:39;3.60;77.90
30379;DHT22;17168;49.164;9.060;2023-02-11T03:42:13;3.70;77.80
30379;DHT22;17168;49.164;9.060;2023-02-11T03:44:49;3.70;77.70
30379;DHT22;17168;49.164;9.060;2023-02-11T03:47:25;3.80;77.70
30379;DHT22;17168;49.164;9.060;2023-02-11T03:49:59;3.90;77.60
30379;DHT22;17168;49.164;9.060;2023-02-11T03:52:36;3.90;77.50
30379;DHT22;17168;49.164;9.060;2023-02-11T03:55:12;4.00;77.40
30379;DHT22;17168;49.164;9.060;2023-02-11T03:57:46;4.00;77.30
30379;DHT22;17168;49.164;9.060;2023-02-11T04:00:18;3.90;77.30
30379;DHT22;17168;49.164;9.060;2023-02-11T04:02:50;3.90;77.40
30379;DHT22;17168;49.164;9.060;2023-02-11T04:05:22;3.90;77.50
30379;DHT22;17168;49.164;9.060;2023-02-11T04:07:57;3.90;77.60
30379;DHT22;17168;49.164;9.060;2023-02-11T04:10:29;3.90;77.60
30379;DHT22;17168;49.164;9.060;2023-02-11T04:13:01;3.90;77.60
30379;DHT22;17168;49.164;9.060;2023-02-11T04:15:33;3.90;77.60
30379;DHT22;17168;49.164;9.060;2023-02-11T04:18:05;3.90;77.50
30379;DHT22;17168;49.164;9.060;2023-02-11T04:20:37;3.90;77.40
30379;DHT22;17168;49.164;9.060;2023-02-11T04:23:12;3.80;77.30
30379;DHT22;17168;49.164;9.060;2023-02-11T04:25:44;3.80;77.30
30379;DHT22;17168;49.164;9.060;2023-02-11T04:28:16;3.80;77.30
30379;DHT22;17168;49.164;9.060;2023-02-11T04:30:49;3.80;77.30
30379;DHT22;17168;49.164;9.060;2023-02-11T04:33:21;3.80;77.20
30379;DHT22;17168;49.164;9.060;2023-02-11T04:35:53;3.80;77.20
30379;DHT22;17168;49.164;9.060;2023-02-11T04:38:28;3.80;77.10
30379;DHT22;17168;49.164;9.060;2023-02-11T04:41:00;3.70;77.10
30379;DHT22;17168;49.164;9.060;2023-02-11T04:43:32;3.80;77.20
30379;DHT22;17168;49.164;9.060;2023-02-11T04:46:04;3.80;77.20
30379;DHT22;17168;49.164;9.060;2023-02-11T04:48:36;3.70;77.20
30379;DHT22;17168;49.164;9.060;2023-02-11T04:51:08;3.70;77.30
30379;DHT22;17168;49.164;9.060;2023-02-11T04:53:43;3.70;77.40
30379;DHT22;17168;49.164;9.060;2023-02-11T04:56:15;3.70;77.50
30379;DHT22;17168;49.164;9.060;2023-02-11T04:58:47;3.60;77.50
30379;DHT22;17168;49.164;9.060;2023-02-11T05:01:19;3.60;77.50
30379;DHT22;17168;49.164;9.060;2023-02-11T05:03:51;3.50;77.50
30379;DHT22;17168;49.164;9.060;2023-02-11T05:06:24;3.50;77.60
30379;DHT22;17168;49.164;9.060;2023-02-11T05:08:58;3.40;77.70
30379;DHT22;17168;49.164;9.060;2023-02-11T05:11:30;3.40;77.90
30379;DHT22;17168;49.164;9.060;2023-02-11T05:14:02;3.40;78.00
30379;DHT22;17168;49.164;9.060;2023-02-11T05:16:34;3.30;78.10
30379;DHT22;17168;49.164;9.060;2023-02-11T05:19:07;3.30;78.20
30379;DHT22;17168;49.164;9.060;2023-02-11T05:21:39;3.20;78.20
30379;DHT22;17168;49.164;9.060;2023-02-11T05:24:30;3.20;78.50
30379;DHT22;17168;49.164;9.060;2023-02-11T05:27:02;3.20;78.80
30379;DHT22;17168;49.164;9.060;2023-02-11T05:29:35;3.10;79.00
30379;DHT22;17168;49.164;9.060;2023-02-11T05:32:07;3.10;79.10
30379;DHT22;17168;49.164;9.060;2023-02-11T05:34:39;3.10;79.50
30379;DHT22;17168;49.164;9.060;2023-02-11T05:37:11;3.10;79.60
30379;DHT22;17168;49.164;9.060;2023-02-11T05:39:46;3.10;79.60
30379;DHT22;17168;49.164;9.060;2023-02-11T05:42:19;3.10;79.70
30379;DHT22;17168;49.164;9.060;2023-02-11T05:44:50;3.10;80.00
30379;DHT22;17168;49.164;9.060;2023-02-11T05:47:23;3.10;80.10
30379;DHT22;17168;49.164;9.060;2023-02-11T05:49:55;3.10;80.10
30379;DHT22;17168;49.164;9.060;2023-02-11T05:52:27;3.10;80.20
30379;DHT22;17168;49.164;9.060;2023-02-11T05:55:01;3.10;80.20
30379;DHT22;17168;49.164;9.060;2023-02-11T05:57:33;3.20;80.30
30379;DHT22;17168;49.164;9.060;2023-02-11T06:00:06;3.20;80.40
30379;DHT22;17168;49.164;9.060;2023-02-11T06:02:39;3.20;80.40
30379;DHT22;17168;49.164;9.060;2023-02-11T06:05:11;3.20;80.50
30379;DHT22;17168;49.164;9.060;2023-02-11T06:07:43;3.20;80.60
30379;DHT22;17168;49.164;9.060;2023-02-11T06:10:18;3.20;80.70
30379;DHT22;17168;49.164;9.060;2023-02-11T06:12:51;3.30;80.80
30379;DHT22;17168;49.164;9.060;2023-02-11T06:15:23;3.30;80.70
30379;DHT22;17168;49.164;9.060;2023-02-11T06:17:55;3.30;80.80
30379;DHT22;17168;49.164;9.060;2023-02-11T06:20:27;3.30;80.80
30379;DHT22;17168;49.164;9.060;2023-02-11T06:22:59;3.40;80.90
30379;DHT22;17168;49.164;9.060;2023-02-11T06:25:34;3.30;80.80
30379;DHT22;17168;49.164;9.060;2023-02-11T06:28:06;3.40;81.00
30379;DHT22;17168;49.164;9.060;2023-02-11T06:30:38;3.40;81.00
30379;DHT22;17168;49.164;9.060;2023-02-11T06:33:10;3.40;81.00
30379;DHT22;17168;49.164;9.060;2023-02-11T06:35:42;3.40;81.00
30379;DHT22;17168;49.164;9.060;2023-02-11T06:38:14;3.40;81.00
30379;DHT22;17168;49.164;9.060;2023-02-11T06:40:49;3.40;81.00
30379;DHT22;17168;49.164;9.060;2023-02-11T06:43:21;3.40;81.10
30379;DHT22;17168;49.164;9.060;2023-02-11T06:45:54;3.40;81.20
30379;DHT22;17168;49.164;9.060;2023-02-11T06:48:26;3.40;81.20
30379;DHT22;17168;49.164;9.060;2023-02-11T06:51:00;3.40;81.30
30379;DHT22;17168;49.164;9.060;2023-02-11T06:53:34;3.40;81.40
30379;DHT22;17168;49.164;9.060;2023-02-11T06:56:12;3.40;81.40
30379;DHT22;17168;49.164;9.060;2023-02-11T06:58:45;3.50;81.50
30379;DHT22;17168;49.164;9.060;2023-02-11T07:01:18;3.50;81.60
30379;DHT22;17168;49.164;9.060;2023-02-11T07:03:50;3.40;81.60
30379;DHT22;17168;49.164;9.060;2023-02-11T07:06:24;3.40;81.70
30379;DHT22;17168;49.164;9.060;2023-02-11T07:08:58;3.40;81.70
30379;DHT22;17168;49.164;9.060;2023-02-11T07:11:33;3.40;81.80
30379;DHT22;17168;49.164;9.060;2023-02-11T07:14:06;3.40;81.90
30379;DHT22;17168;49.164;9.060;2023-02-11T07:16:41;3.40;82.00
30379;DHT22;17168;49.164;9.060;2023-02-11T07:19:13;3.40;82.00
30379;DHT22;17168;49.164;9.060;2023-02-11T07:21:45;3.40;82.10
30379;DHT22;17168;49.164;9.060;2023-02-11T07:24:17;3.40;82.20
30379;DHT22;17168;49.164;9.060;2023-02-11T07:26:52;3.40;82.40
30379;DHT22;17168;49.164;9.060;2023-02-11T07:29:24;3.30;82.60
30379;DHT22;17168;49.164;9.060;2023-02-11T07:31:56;3.30;82.80
30379;DHT22;17168;49.164;9.060;2023-02-11T07:34:28;3.20;83.00
30379;DHT22;17168;49.164;9.060;2023-02-11T07:37:00;3.20;83.20
30379;DHT22;17168;49.164;9.060;2023-02-11T07:39:32;3.20;83.50
30379;DHT22;17168;49.164;9.060;2023-02-11T07:42:07;3.20;83.60
30379;DHT22;17168;49.164;9.060;2023-02-11T07:44:39;3.20;83.90
30379;DHT22;17168;49.164;9.060;2023-02-11T07:47:11;3.20;84.20
30379;DHT22;17168;49.164;9.060;2023-02-11T07:49:43;3.20;84.50
30379;DHT22;17168;49.164;9.060;2023-02-11T07:52:15;3.30;84.90
30379;DHT22;17168;49.164;9.060;2023-02-11T07:54:47;3.40;85.00
30379;DHT22;17168;49.164;9.060;2023-02-11T07:57:22;3.40;85.00
30379;DHT22;17168;49.164;9.060;2023-02-11T07:59:54;3.50;85.00
30379;DHT22;17168;49.164;9.060;2023-02-11T08:02:26;3.60;85.10
30379;DHT22;17168;49.164;9.060;2023-02-11T08:04:58;3.60;85.20
30379;DHT22;17168;49.164;9.060;2023-02-11T08:07:30;3.60;85.30
30379;DHT22;17168;49.164;9.060;2023-02-11T08:10:02;3.70;85.50
30379;DHT22;17168;49.164;9.060;2023-02-11T08:12:37;3.70;85.70
30379;DHT22;17168;49.164;9.060;2023-02-11T08:15:09;3.80;86.10
30379;DHT22;17168;49.164;9.060;2023-02-11T08:17:40;3.90;86.40
30379;DHT22;17168;49.164;9.060;2023-02-11T08:20:12;4.00;86.50
30379;DHT22;17168;49.164;9.060;2023-02-11T08:22:44;4.10;86.60
30379;DHT22;17168;49.164;9.060;2023-02-11T08:25:16;4.10;86.50
30379;DHT22;17168;49.164;9.060;2023-02-11T08:27:50;4.20;86.50
30379;DHT22;17168;49.164;9.060;2023-02-11T08:30:22;4.30;86.40
30379;DHT22;17168;49.164;9.060;2023-02-11T08:32:57;4.30;86.30
30379;DHT22;17168;49.164;9.060;2023-02-11T08:35:29;4.30;86.20
30379;DHT22;17168;49.164;9.060;2023-02-11T08:38:01;4.40;86.20
30379;DHT22;17168;49.164;9.060;2023-02-11T08:40:33;4.40;86.10
30379;DHT22;17168;49.164;9.060;2023-02-11T08:43:07;4.50;86.10
30379;DHT22;17168;49.164;9.060;2023-02-11T08:45:39;4.50;86.20
30379;DHT22;17168;49.164;9.060;2023-02-11T08:48:11;4.60;86.10
30379;DHT22;17168;49.164;9.060;2023-02-11T08:50:43;4.60;86.00
30379;DHT22;17168;49.164;9.060;2023-02-11T08:53:15;4.60;85.90
30379;DHT22;17168;49.164;9.060;2023-02-11T08:55:47;4.70;85.90
30379;DHT22;17168;49.164;9.060;2023-02-11T08:58:22;4.70;85.80
30379;DHT22;17168;49.164;9.060;2023-02-11T09:00:54;4.80;85.70
30379;DHT22;17168;49.164;9.060;2023-02-11T09:03:26;4.80;85.70
30379;DHT22;17168;49.164;9.060;2023-02-11T09:05:58;4.90;85.60
30379;DHT22;17168;49.164;9.060;2023-02-11T09:08:29;4.90;85.50
30379;DHT22;17168;49.164;9.060;2023-02-11T09:11:01;5.00;85.30
30379;DHT22;17168;49.164;9.060;2023-02-11T09:13:37;5.00;85.00
30379;DHT22;17168;49.164;9.060;2023-02-11T09:16:13;5.00;84.90
30379;DHT22;17168;49.164;9.060;2023-02-11T09:18:46;5.10;85.00
30379;DHT22;17168;49.164;9.060;2023-02-11T09:21:18;5.10;85.00
30379;DHT22;17168;49.164;9.060;2023-02-11T09:23:50;5.20;84.70
30379;DHT22;17168;49.164;9.060;2023-02-11T09:26:24;5.20;84.60
30379;DHT22;17168;49.164;9.060;2023-02-11T09:28:59;5.30;84.60
30379;DHT22;17168;49.164;9.060;2023-02-11T09:31:32;5.30;84.30
30379;DHT22;17168;49.164;9.060;2023-02-11T09:34:05;5.30;84.00
30379;DHT22;17168;49.164;9.060;2023-02-11T09:36:38;5.30;83.60
30379;DHT22;17168;49.164;9.060;2023-02-11T09:39:11;5.40;83.50
30379;DHT22;17168;49.164;9.060;2023-02-11T09:41:52;5.40;83.40
30379;DHT22;17168;49.164;9.060;2023-02-11T09:44:28;5.50;83.40
30379;DHT22;17168;49.164;9.060;2023-02-11T09:47:02;5.50;83.20
30379;DHT22;17168;49.164;9.060;2023-02-11T09:49:37;5.60;83.00
30379;DHT22;17168;49.164;9.060;2023-02-11T09:52:12;5.60;82.90
30379;DHT22;17168;49.164;9.060;2023-02-11T09:54:48;5.60;82.80
30379;DHT22;17168;49.164;9.060;2023-02-11T09:57:27;5.70;82.60
30379;DHT22;17168;49.164;9.060;2023-02-11T10:00:11;5.80;82.60
30379;DHT22;17168;49.164;9.060;2023-02-11T10:03:19;5.90;82.20
30379;DHT22;17168;49.164;9.060;2023-02-11T10:06:17;5.90;81.70
30379;DHT22;17168;49.164;9.060;2023-02-11T10:09:00;5.90;81.40
30379;DHT22;17168;49.164;9.060;2023-02-11T10:11:40;6.00;81.20
30379;DHT22;17168;49.164;9.060;2023-02-11T10:14:27;6.00;81.10
30379;DHT22;17168;49.164;9.060;2023-02-11T10:17:13;6.10;81.20
30379;DHT22;17168;49.164;9.060;2023-02-11T10:19:54;6.20;81.30
30379;DHT22;17168;49.164;9.060;2023-02-11T10:22:32;6.20;81.40
30379;DHT22;17168;49.164;9.060;2023-02-11T10:25:17;6.20;81.40
30379;DHT22;17168;49.164;9.060;2023-02-11T10:27:51;6.30;81.70
30379;DHT22;17168;49.164;9.060;2023-02-11T10:30:27;6.40;81.70
30379;DHT22;17168;49.164;9.060;2023-02-11T10:33:05;6.40;81.60
30379;DHT22;17168;49.164;9.060;2023-02-11T10:35:42;6.50;81.70
30379;DHT22;17168;49.164;9.060;2023-02-11T10:38:16;6.60;81.80
30379;DHT22;17168;49.164;9.060;2023-02-11T10:40:48;6.70;81.80
30379;DHT22;17168;49.164;9.060;2023-02-11T10:43:25;6.80;81.90
30379;DHT22;17168;49.164;9.060;2023-02-11T10:45:58;6.90;81.50
30379;DHT22;17168;49.164;9.060;2023-02-11T10:51:21;7.10;80.90
30379;DHT22;17168;49.164;9.060;2023-02-11T10:54:11;7.20;81.40
30379;DHT22;17168;49.164;9.060;2023-02-11T10:56:58;7.30;81.00
30379;DHT22;17168;49.164;9.060;2023-02-11T10:59:32;7.40;80.60
30379;DHT22;17168;49.164;9.060;2023-02-11T11:02:22;7.50;80.80
30379;DHT22;17168;49.164;9.060;2023-02-11T11:04:59;7.50;80.70
30379;DHT22;17168;49.164;9.060;2023-02-11T11:07:32;7.50;80.20
30379;DHT22;17168;49.164;9.060;2023-02-11T11:10:07;7.50;79.50
30379;DHT22;17168;49.164;9.060;2023-02-11T11:12:55;7.50;79.10
30379;DHT22;17168;49.164;9.060;2023-02-11T11:15:28;7.50;79.10
30379;DHT22;17168;49.164;9.060;2023-02-11T11:18:13;7.40;78.90
30379;DHT22;17168;49.164;9.060;2023-02-11T11:20:58;7.50;78.90
30379;DHT22;17168;49.164;9.060;2023-02-11T11:23:32;7.50;78.90
30379;DHT22;17168;49.164;9.060;2023-02-11T11:26:08;7.50;78.60
30379;DHT22;17168;49.164;9.060;2023-02-11T11:28:51;7.50;78.40
30379;DHT22;17168;49.164;9.060;2023-02-11T11:31:30;7.50;78.50
30379;DHT22;17168;49.164;9.060;2023-02-11T11:34:19;7.50;78.40
30379;DHT22;17168;49.164;9.060;2023-02-11T11:36:56;7.60;78.70
30379;DHT22;17168;49.164;9.060;2023-02-11T11:39:30;7.60;78.80
30379;DHT22;17168;49.164;9.060;2023-02-11T11:42:05;7.70;78.90
30379;DHT22;17168;49.164;9.060;2023-02-11T11:44:57;7.70;78.90
30379;DHT22;17168;49.164;9.060;2023-02-11T11:47:35;7.80;79.00
30379;DHT22;17168;49.164;9.060;2023-02-11T11:50:24;7.80;78.90
30379;DHT22;17168;49.164;9.060;2023-02-11T11:53:04;7.90;79.10
30379;DHT22;17168;49.164;9.060;2023-02-11T11:58:15;8.10;79.00
30379;DHT22;17168;49.164;9.060;2023-02-11T12:00:53;8.20;79.40
30379;DHT22;17168;49.164;9.060;2023-02-11T12:03:49;8.30;79.30
30379;DHT22;17168;49.164;9.060;2023-02-11T12:06:37;8.40;79.10
30379;DHT22;17168;49.164;9.060;2023-02-11T12:09:20;8.50;79.20
30379;DHT22;17168;49.164;9.060;2023-02-11T12:12:04;8.60;79.20
30379;DHT22;17168;49.164;9.060;2023-02-11T12:14:48;8.80;79.60
30379;DHT22;17168;49.164;9.060;2023-02-11T12:17:35;9.00;79.50
30379;DHT22;17168;49.164;9.060;2023-02-11T12:20:20;9.10;79.40
30379;DHT22;17168;49.164;9.060;2023-02-11T12:23:04;9.20;79.00
30379;DHT22;17168;49.164;9.060;2023-02-11T12:25:53;9.40;79.10
30379;DHT22;17168;49.164;9.060;2023-02-11T12:28:35;9.80;79.40
30379;DHT22;17168;49.164;9.060;2023-02-11T12:31:21;10.30;80.00
30379;DHT22;17168;49.164;9.060;2023-02-11T12:34:06;10.80;79.30
30379;DHT22;17168;49.164;9.060;2023-02-11T12:36:59;11.20;78.70
30379;DHT22;17168;49.164;9.060;2023-02-11T12:39:42;11.80;78.80
30379;DHT22;17168;49.164;9.060;2023-02-11T12:42:33;12.30;78.10
30379;DHT22;17168;49.164;9.060;2023-02-11T12:45:45;12.60;76.80
30379;DHT22;17168;49.164;9.060;2023-02-11T12:48:31;12.70;74.50
30379;DHT22;17168;49.164;9.060;2023-02-11T12:51:20;12.80;73.70
30379;DHT22;17168;49.164;9.060;2023-02-11T12:54:17;13.00;72.60
30379;DHT22;17168;49.164;9.060;2023-02-11T12:56:54;13.00;71.40
30379;DHT22;17168;49.164;9.060;2023-02-11T12:59:42;12.90;70.30
30379;DHT22;17168;49.164;9.060;2023-02-11T13:02:21;12.90;69.50
30379;DHT22;17168;49.164;9.060;2023-02-11T13:05:02;13.00;69.00
30379;DHT22;17168;49.164;9.060;2023-02-11T13:07:35;13.30;69.40
30379;DHT22;17168;49.164;9.060;2023-02-11T13:13:01;13.60;67.40
30379;DHT22;17168;49.164;9.060;2023-02-11T13:15:55;13.70;67.40
30379;DHT22;17168;49.164;9.060;2023-02-11T13:18:38;13.80;67.40
30379;DHT22;17168;49.164;9.060;2023-02-11T13:21:30;14.20;68.20
30379;DHT22;17168;49.164;9.060;2023-02-11T13:24:19;14.50;67.10
30379;DHT22;17168;49.164;9.060;2023-02-11T13:26:59;14.50;66.50
30379;DHT22;17168;49.164;9.060;2023-02-11T13:29:41;14.70;66.40
30379;DHT22;17168;49.164;9.060;2023-02-11T13:32:20;15.00;66.50
30379;DHT22;17168;49.164;9.060;2023-02-11T13:34:55;15.20;65.70
30379;DHT22;17168;49.164;9.060;2023-02-11T13:37:32;15.30;64.00
30379;DHT22;17168;49.164;9.060;2023-02-11T13:40:21;15.30;64.30
30379;DHT22;17168;49.164;9.060;2023-02-11T13:42:55;15.10;63.20
30379;DHT22;17168;49.164;9.060;2023-02-11T13:45:33;14.90;63.80
30379;DHT22;17168;49.164;9.060;2023-02-11T13:48:21;14.80;64.20
30379;DHT22;17168;49.164;9.060;2023-02-11T13:50:57;14.80;64.30
30379;DHT22;17168;49.164;9.060;2023-02-11T13:53:43;14.80;64.60
30379;DHT22;17168;49.164;9.060;2023-02-11T13:56:27;14.80;65.00
30379;DHT22;17168;49.164;9.060;2023-02-11T13:59:00;15.00;65.60
30379;DHT22;17168;49.164;9.060;2023-02-11T14:01:37;15.20;65.40
30379;DHT22;17168;49.164;9.060;2023-02-11T14:04:27;15.10;65.20
30379;DHT22;17168;49.164;9.060;2023-02-11T14:07:26;15.10;65.10
30379;DHT22;17168;49.164;9.060;2023-02-11T14:13:16;15.30;65.40
30379;DHT22;17168;49.164;9.060;2023-02-11T14:16:02;15.10;65.40
30379;DHT22;17168;49.164;9.060;2023-02-11T14:21:29;14.70;65.10
30379;DHT22;17168;49.164;9.060;2023-02-11T14:27:06;14.20;64.40
30379;DHT22;17168;49.164;9.060;2023-02-11T14:29:40;13.90;65.00
30379;DHT22;17168;49.164;9.060;2023-02-11T14:32:25;13.60;65.30
30379;DHT22;17168;49.164;9.060;2023-02-11T14:35:11;13.40;65.50
30379;DHT22;17168;49.164;9.060;2023-02-11T14:37:53;13.10;65.70
30379;DHT22;17168;49.164;9.060;2023-02-11T14:40:32;12.90;65.80
30379;DHT22;17168;49.164;9.060;2023-02-11T14:43:11;12.70;66.00
30379;DHT22;17168;49.164;9.060;2023-02-11T14:45:48;12.50;66.10
30379;DHT22;17168;49.164;9.060;2023-02-11T14:48:26;12.30;66.30
30379;DHT22;17168;49.164;9.060;2023-02-11T14:51:02;12.20;66.60
30379;DHT22;17168;49.164;9.060;2023-02-11T14:53:43;12.00;66.90
30379;DHT22;17168;49.164;9.060;2023-02-11T14:56:16;11.90;67.20
30379;DHT22;17168;49.164;9.060;2023-02-11T14:58:49;11.90;67.50
30379;DHT22;17168;49.164;9.060;2023-02-11T15:01:26;11.80;67.60
30379;DHT22;17168;49.164;9.060;2023-02-11T15:04:03;11.80;67.90
30379;DHT22;17168;49.164;9.060;2023-02-11T15:06:36;11.80;68.10
30379;DHT22;17168;49.164;9.060;2023-02-11T15:09:15;11.80;68.10
30379;DHT22;17168;49.164;9.060;2023-02-11T15:11:47;11.70;68.10
30379;DHT22;17168;49.164;9.060;2023-02-11T15:14:21;11.60;68.20
30379;DHT22;17168;49.164;9.060;2023-02-11T15:16:57;11.50;68.30
30379;DHT22;17168;49.164;9.060;2023-02-11T15:19:33;11.40;68.40
30379;DHT22;17168;49.164;9.060;2023-02-11T15:22:14;11.40;68.50
30379;DHT22;17168;49.164;9.060;2023-02-11T15:24:59;11.30;69.20
30379;DHT22;17168;49.164;9.060;2023-02-11T15:27:36;11.20;68.60
30379;DHT22;17168;49.164;9.060;2023-02-11T15:30:22;11.10;68.90
30379;DHT22;17168;49.164;9.060;2023-02-11T15:32:55;11.00;69.00
30379;DHT22;17168;49.164;9.060;2023-02-11T15:35:31;11.00;69.20
30379;DHT22;17168;49.164;9.060;2023-02-11T15:38:05;10.90;69.20
30379;DHT22;17168;49.164;9.060;2023-02-11T15:40:51;10.80;69.30
30379;DHT22;17168;49.164;9.060;2023-02-11T15:43:23;10.70;69.50
30379;DHT22;17168;49.164;9.060;2023-02-11T15:45:57;10.70;69.70
30379;DHT22;17168;49.164;9.060;2023-02-11T15:48:33;10.60;69.90
30379;DHT22;17168;49.164;9.060;2023-02-11T15:51:07;10.60;70.00
30379;DHT22;17168;49.164;9.060;2023-02-11T15:53:42;10.60;70.10
30379;DHT22;17168;49.164;9.060;2023-02-11T15:56:20;10.50;70.20
30379;DHT22;17168;49.164;9.060;2023-02-11T15:58:58;10.50;70.40
30379;DHT22;17168;49.164;9.060;2023-02-11T16:01:35;10.50;70.50
30379;DHT22;17168;49.164;9.060;2023-02-11T16:04:16;10.40;70.70
30379;DHT22;17168;49.164;9.060;2023-02-11T16:06:50;10.40;70.80
30379;DHT22;17168;49.164;9.060;2023-02-11T16:09:29;10.30;71.00
30379;DHT22;17168;49.164;9.060;2023-02-11T16:12:22;10.20;71.00
30379;DHT22;17168;49.164;9.060;2023-02-11T16:14:54;10.20;71.30
30379;DHT22;17168;49.164;9.060;2023-02-11T16:17:30;10.10;71.40
30379;DHT22;17168;49.164;9.060;2023-02-11T16:20:03;9.90;71.60
30379;DHT22;17168;49.164;9.060;2023-02-11T16:22:35;9.80;71.80
30379;DHT22;17168;49.164;9.060;2023-02-11T16:25:15;9.70;72.10
30379;DHT22;17168;49.164;9.060;2023-02-11T16:27:52;9.60;72.30
30379;DHT22;17168;49.164;9.060;2023-02-11T16:30:28;9.50;72.50
30379;DHT22;17168;49.164;9.060;2023-02-11T16:33:02;9.50;72.60
30379;DHT22;17168;49.164;9.060;2023-02-11T16:35:39;9.50;72.70
30379;DHT22;17168;49.164;9.060;2023-02-11T16:38:11;9.40;72.80
30379;DHT22;17168;49.164;9.060;2023-02-11T16:40:44;9.40;72.90
30379;DHT22;17168;49.164;9.060;2023-02-11T16:43:22;9.40;73.00
30379;DHT22;17168;49.164;9.060;2023-02-11T16:45:55;9.40;73.20
30379;DHT22;17168;49.164;9.060;2023-02-11T16:48:28;9.30;73.20
30379;DHT22;17168;49.164;9.060;2023-02-11T16:51:00;9.30;73.30
30379;DHT22;17168;49.164;9.060;2023-02-11T16:53:33;9.30;73.40
30379;DHT22;17168;49.164;9.060;2023-02-11T16:56:05;9.30;73.90
30379;DHT22;17168;49.164;9.060;2023-02-11T16:58:40;9.30;73.50
30379;DHT22;17168;49.164;9.060;2023-02-11T17:01:12;9.30;73.50
30379;DHT22;17168;49.164;9.060;2023-02-11T17:03:45;9.40;73.70